Uniontown, Washington
Current Conditions -  °F | °C
As of 10:56 PM on Wednesday 26 Nov 2014 (Local Time) from KLWS Reporting Station
Few Clouds Few Clouds  
Wind Chill: 42°   Ceiling: Unl
Heat Index: 46°   Visibility: 10mi
Dew Point: 42°   Wind: 8mph
Humidity: 86%   Direction: 60°ENE
Pressure: 30.03"   Gusts: NA
Location:  46.54°N, 117.09°W
Report Text: KLWS 270656Z AUTO 06007KT 10SM FEW100 08/06 A3003 RMK AO2 SLP175 T00780056
Loading
Personal Weather Stations






























Interactive Weather Map New forecast layout! Learn more

10-Day Weather Forecast

Advertisements
Track Severe Weather on mobile